createdAt,value
2019-02-28T03:07:50.396Z,-1.4
2019-02-28T03:08:40.395Z,-1.4
2019-02-28T03:09:30.485Z,-1.4
2019-02-28T03:10:21.324Z,-1.5
2019-02-28T03:11:10.561Z,-1.4
2019-02-28T03:12:00.627Z,-1.4
2019-02-28T03:12:50.659Z,-1.5
2019-02-28T03:13:45.218Z,-1.5
2019-02-28T03:14:30.838Z,-1.5
2019-02-28T03:15:27.999Z,-1.5
2019-02-28T03:16:10.983Z,-1.5
2019-02-28T03:17:00.669Z,-1.5
2019-02-28T03:17:51.033Z,-1.5
2019-02-28T03:18:40.801Z,-1.5
2019-02-28T03:19:35.978Z,-1.5
2019-02-28T03:20:20.641Z,-1.5
2019-02-28T03:21:16.521Z,-1.5
2019-02-28T03:22:01.030Z,-1.5
2019-02-28T03:22:51.074Z,-1.5
2019-02-28T03:23:41.834Z,-1.5
2019-02-28T03:24:31.474Z,-1.5
2019-02-28T03:25:29.598Z,-1.5
2019-02-28T03:26:11.316Z,-1.6
2019-02-28T03:27:01.395Z,-1.6
2019-02-28T03:27:57.846Z,-1.6
2019-02-28T03:28:41.749Z,-1.6
2019-02-28T03:29:31.803Z,-1.6
2019-02-28T03:30:34.559Z,-1.6
2019-02-28T03:31:16.875Z,-1.6
2019-02-28T03:32:01.761Z,-1.6
2019-02-28T03:32:52.124Z,-1.6
2019-02-28T03:33:42.229Z,-1.6
2019-02-28T03:34:31.963Z,-1.6
2019-02-28T03:35:22.513Z,-1.6
2019-02-28T03:36:17.572Z,-1.6
2019-02-28T03:37:02.353Z,-1.6
2019-02-28T03:37:52.388Z,-1.6
2019-02-28T03:38:51.082Z,-1.7
2019-02-28T03:39:32.218Z,-1.7
2019-02-28T03:40:22.553Z,-1.7
2019-02-28T03:41:19.334Z,-1.7
2019-02-28T03:42:02.689Z,-1.7
2019-02-28T03:42:52.755Z,-1.7
2019-02-28T03:43:45.212Z,-1.7
2019-02-28T03:44:32.839Z,-1.8
2019-02-28T03:45:22.626Z,-1.7
2019-02-28T03:46:13.178Z,-1.7
2019-02-28T03:47:03.044Z,-1.7
2019-02-28T03:48:00.915Z,-1.8
2019-02-28T03:48:42.860Z,-1.8
2019-02-28T03:49:32.932Z,-1.8
2019-02-28T03:50:24.200Z,-1.8
2019-02-28T03:51:13.302Z,-1.8
2019-02-28T03:52:08.238Z,-1.8
2019-02-28T03:52:53.442Z,-1.8
2019-02-28T03:53:43.226Z,-1.8
2019-02-28T03:54:33.572Z,-1.8
2019-02-28T03:55:23.582Z,-1.8
2019-02-28T03:56:17.131Z,-1.8
2019-02-28T03:57:03.728Z,-1.8
2019-02-28T03:57:53.478Z,-1.8
2019-02-28T03:58:44.115Z,-1.8
2019-02-28T03:59:33.608Z,-1.8
2019-02-28T04:00:23.949Z,-1.8
2019-02-28T04:01:14.145Z,-1.8
2019-02-28T04:02:04.196Z,-1.8
2019-02-28T04:02:59.968Z,-1.8
2019-02-28T04:03:44.161Z,-1.8
2019-02-28T04:04:34.226Z,-1.8
2019-02-28T04:05:29.679Z,-1.8
2019-02-28T04:06:14.065Z,-1.8
2019-02-28T04:07:04.129Z,-1.8
2019-02-28T04:07:56.145Z,-1.8
2019-02-28T04:08:44.245Z,-1.8
2019-02-28T04:09:34.019Z,-1.8
2019-02-28T04:10:24.655Z,-1.8
2019-02-28T04:11:14.683Z,-1.8
2019-02-28T04:12:09.868Z,-1.8
2019-02-28T04:12:54.784Z,-1.8
2019-02-28T04:13:44.852Z,-1.8
2019-02-28T04:14:35.364Z,-1.8
2019-02-28T04:15:24.990Z,-1.9
2019-02-28T04:16:14.768Z,-1.9
2019-02-28T04:17:05.091Z,-1.8
2019-02-28T04:17:54.925Z,-1.9
2019-02-28T04:18:47.917Z,-1.8
2019-02-28T04:19:35.272Z,-1.9
2019-02-28T04:20:25.325Z,-1.8
2019-02-28T04:21:15.354Z,-1.9
2019-02-28T04:22:05.457Z,-1.9
2019-02-28T04:23:01.332Z,-1.9
2019-02-28T04:23:45.270Z,-1.9
2019-02-28T04:24:35.585Z,-1.9
2019-02-28T04:25:26.132Z,-1.9
2019-02-28T04:26:15.719Z,-1.9
2019-02-28T04:27:09.210Z,-1.9
2019-02-28T04:27:55.567Z,-1.9
2019-02-28T04:28:45.886Z,-1.9
2019-02-28T04:29:35.661Z,-1.9
2019-02-28T04:30:26.046Z,-1.9
2019-02-28T04:31:21.405Z,-1.9
2019-02-28T04:32:05.842Z,-1.9
2019-02-28T04:33:03.080Z,-1.9
2019-02-28T04:33:45.932Z,-1.9
2019-02-28T04:34:36.278Z,-1.9
2019-02-28T04:35:27.010Z,-1.9
2019-02-28T04:36:16.440Z,-1.9
2019-02-28T04:37:10.877Z,-1.9
2019-02-28T04:37:56.534Z,-1.9
2019-02-28T04:38:46.274Z,-1.9
2019-02-28T04:39:36.074Z,-1.9
2019-02-28T04:40:28.689Z,-1.9
2019-02-28T04:41:16.489Z,-1.9
2019-02-28T04:42:07.591Z,-1.9
2019-02-28T04:42:56.557Z,-1.9
2019-02-28T04:43:46.613Z,-1.9
2019-02-28T04:44:36.939Z,-1.9
2019-02-28T04:45:28.084Z,-1.9
2019-02-28T04:46:17.056Z,-2
2019-02-28T04:47:08.646Z,-1.9
2019-02-28T04:47:56.893Z,-2
2019-02-28T04:48:49.889Z,-2
2019-02-28T04:49:37.309Z,-2
2019-02-28T04:50:32.981Z,-2
2019-02-28T04:51:17.128Z,-2
2019-02-28T04:52:07.213Z,-2
2019-02-28T04:52:57.256Z,-2
2019-02-28T04:53:47.308Z,-2.1
2019-02-28T04:54:37.622Z,-2
2019-02-28T04:55:27.681Z,-2
2019-02-28T04:56:17.732Z,-2.1
2019-02-28T04:57:07.803Z,-2.1
2019-02-28T04:57:57.864Z,-2.1
2019-02-28T04:58:47.916Z,-2.1
2019-02-28T04:59:37.980Z,-2.1
2019-02-28T05:00:28.035Z,-2.1
2019-02-28T05:01:18.093Z,-2.1
2019-02-28T05:02:08.140Z,-2.1
2019-02-28T05:02:58.193Z,-2.1
2019-02-28T05:03:47.975Z,-2.1
2019-02-28T05:04:38.313Z,-2.1
2019-02-28T05:05:28.381Z,-2.1
2019-02-28T05:06:22.617Z,-2.1
2019-02-28T05:07:08.487Z,-2.1
2019-02-28T05:07:58.277Z,-2.1
2019-02-28T05:08:48.350Z,-2.1
2019-02-28T05:09:38.385Z,-2.1
2019-02-28T05:10:28.442Z,-2.1
2019-02-28T05:11:18.785Z,-2.1
2019-02-28T05:12:08.839Z,-2.2
2019-02-28T05:12:58.879Z,-2.1
2019-02-28T05:13:50.765Z,-2.1
2019-02-28T05:14:38.730Z,-2.2
2019-02-28T05:15:29.052Z,-2.2
2019-02-28T05:16:18.845Z,-2.2
2019-02-28T05:17:08.940Z,-2.2
2019-02-28T05:17:59.225Z,-2.2
2019-02-28T05:18:49.284Z,-2.2
2019-02-28T05:19:39.345Z,-2.2
2019-02-28T05:20:29.394Z,-2.2
2019-02-28T05:21:21.012Z,-2.2
2019-02-28T05:22:09.230Z,-2.2
2019-02-28T05:23:03.407Z,-2.1
2019-02-28T05:23:49.629Z,-2.2
2019-02-28T05:24:44.489Z,-2.1
2019-02-28T05:25:29.729Z,-2.1
2019-02-28T05:26:19.802Z,-2.1
2019-02-28T05:27:09.565Z,-2.1
2019-02-28T05:27:59.622Z,-2.1
2019-02-28T05:28:49.959Z,-2.1
2019-02-28T05:29:40.006Z,-2.1
2019-02-28T05:30:30.162Z,-2.1
2019-02-28T05:31:20.159Z,-2.1
2019-02-28T05:32:09.920Z,-2.1
2019-02-28T05:33:00.254Z,-2.1
2019-02-28T05:33:50.022Z,-2.1
2019-02-28T05:34:40.358Z,-2
2019-02-28T05:35:30.139Z,-2
2019-02-28T05:36:20.474Z,-2
2019-02-28T05:37:14.194Z,-2
2019-02-28T05:38:00.591Z,-2
2019-02-28T05:38:53.522Z,-1.9
2019-02-28T05:39:40.709Z,-1.9
2019-02-28T05:40:30.750Z,-1.9
2019-02-28T05:41:20.838Z,-1.9
2019-02-28T05:42:10.611Z,-1.8
2019-02-28T05:43:00.942Z,-1.8
2019-02-28T05:43:50.718Z,-1.8
2019-02-28T05:44:42.374Z,-1.8
2019-02-28T05:45:31.098Z,-1.7
2019-02-28T05:46:25.596Z,-1.6
2019-02-28T05:47:10.673Z,-1.6
2019-02-28T05:48:05.045Z,-1.6
2019-02-28T05:48:51.315Z,-1.6
2019-02-28T05:49:42.722Z,-1.5
2019-02-28T05:50:31.171Z,-1.4
2019-02-28T05:51:24.359Z,-1.4
2019-02-28T05:52:11.274Z,-1.4
2019-02-28T05:53:06.183Z,-1.3
2019-02-28T05:53:51.660Z,-1.3
2019-02-28T05:54:41.735Z,-1.2
2019-02-28T05:55:33.558Z,-1.2
2019-02-28T05:56:21.560Z,-1.1
2019-02-28T05:57:11.893Z,-1
2019-02-28T05:59:42.063Z,-0.8
2019-02-28T06:00:38.764Z,-0.8
2019-02-28T06:01:22.215Z,-0.6
2019-02-28T06:02:11.967Z,-0.6
2019-02-28T06:03:04.088Z,-0.5
2019-02-28T06:03:52.348Z,-0.4
2019-02-28T06:05:50.244Z,-0.2
2019-02-28T06:06:40.272Z,-0.1
2019-02-28T06:07:31.052Z,0.1
2019-02-28T06:08:19.842Z,0.1
2019-02-28T06:09:15.844Z,0.3
2019-02-28T06:10:00.337Z,0.4
2019-02-28T06:10:50.557Z,0.4
2019-02-28T06:11:40.327Z,0.6
2019-02-28T06:12:30.382Z,0.8
2019-02-28T06:13:20.713Z,0.9
2019-02-28T06:14:10.765Z,1
2019-02-28T06:15:50.874Z,1.3
2019-02-28T06:16:47.568Z,1.4
2019-02-28T06:17:30.995Z,1.6
2019-02-28T06:18:21.042Z,1.7
2019-02-28T06:19:11.100Z,1.9
2019-02-28T06:20:01.340Z,2
2019-02-28T06:20:53.592Z,2.2
2019-02-28T06:21:41.267Z,2.4
2019-02-28T06:22:36.967Z,2.5
2019-02-28T06:23:21.427Z,2.8
2019-02-28T06:24:14.592Z,2.9
2019-02-28T06:25:01.646Z,3.1
2019-02-28T06:25:51.585Z,3.3
2019-02-28T06:26:41.615Z,3.5
2019-02-28T06:27:43.536Z,3.7
2019-02-28T06:28:21.791Z,3.9
2019-02-28T06:29:11.782Z,4.1
2019-02-28T06:30:01.852Z,4.3
2019-02-28T06:30:51.904Z,4.5
2019-02-28T06:31:41.692Z,4.8
2019-02-28T06:32:32.025Z,5
2019-02-28T06:33:22.597Z,5.2
2019-02-28T06:34:12.166Z,5.4
2019-02-28T06:35:02.208Z,5.7
2019-02-28T06:35:55.779Z,5.9
2019-02-28T06:36:42.307Z,6.2
2019-02-28T06:37:32.356Z,6.4
2019-02-28T06:38:22.421Z,6.7
2019-02-28T06:39:11.984Z,6.9
2019-02-28T06:40:02.266Z,7.2
2019-02-28T06:40:52.314Z,7.5
2019-02-28T06:41:42.381Z,7.8
2019-02-28T06:42:32.424Z,8.1
2019-02-28T06:43:22.751Z,8.4
2019-02-28T06:44:12.826Z,8.6
2019-02-28T06:45:04.526Z,9
2019-02-28T06:45:52.646Z,9.3
2019-02-28T06:46:42.713Z,9.6
2019-02-28T06:47:32.786Z,9.9
2019-02-28T06:48:27.964Z,10.3
2019-02-28T06:49:13.173Z,10.6
2019-02-28T06:50:02.954Z,10.8
2019-02-28T06:50:52.995Z,11.2
2019-02-28T06:51:43.331Z,11.5
2019-02-28T06:52:33.401Z,11.9
2019-02-28T06:53:23.161Z,12.2
2019-02-28T06:54:13.498Z,12.6
2019-02-28T06:55:03.566Z,12.9
2019-02-28T06:55:53.603Z,13.3
2019-02-28T06:56:43.669Z,13.6
2019-02-28T06:57:34.575Z,14
2019-02-28T06:58:23.798Z,14.3
2019-02-28T06:59:13.554Z,14.8
2019-02-28T07:00:03.639Z,15.1
2019-02-28T07:00:53.951Z,15.5
2019-02-28T07:01:44.012Z,15.8
2019-02-28T07:02:33.518Z,16.3
2019-02-28T07:03:24.115Z,16.6
2019-02-28T07:05:50.213Z,17.6
2019-02-28T07:06:40.245Z,18.2
2019-02-28T07:07:29.999Z,18.4
2019-02-28T07:08:29.880Z,18.9
2019-02-28T07:09:10.387Z,19.4
2019-02-28T07:10:00.470Z,19.6
2019-02-28T07:10:50.548Z,19.1
2019-02-28T07:11:40.547Z,7.6
2019-02-28T07:12:34.045Z,15.8
2019-02-28T07:13:20.694Z,41.8
2019-02-28T07:14:14.962Z,45.6
2019-02-28T07:15:00.799Z,45.4
2019-02-28T07:15:50.829Z,43.1
2019-02-28T07:16:40.892Z,41.2
2019-02-28T07:17:30.949Z,40.2
2019-02-28T07:18:21.509Z,39.3
2019-02-28T07:19:11.062Z,38.8
2019-02-28T07:20:04.349Z,38.3
2019-02-28T07:20:51.172Z,37.9
2019-02-28T07:21:45.522Z,37.6
2019-02-28T07:22:31.004Z,37.3
2019-02-28T07:23:23.271Z,37.1
2019-02-28T07:24:11.392Z,36.9
2019-02-28T07:25:01.455Z,36.8
2019-02-28T07:25:53.449Z,36.6
2019-02-28T07:26:41.564Z,36.4
2019-02-28T07:27:31.629Z,36.2
2019-02-28T07:28:21.714Z,36.1
2019-02-28T07:29:13.538Z,35.9
2019-02-28T07:30:02.027Z,35.8
2019-02-28T07:30:52.599Z,35.6
2019-02-28T07:31:41.901Z,35.5
2019-02-28T07:32:36.022Z,35.4
2019-02-28T07:33:21.779Z,35.3
2019-02-28T07:34:12.082Z,35.2
2019-02-28T07:35:02.169Z,35.1
2019-02-28T07:35:52.191Z,35.1
2019-02-28T07:36:46.869Z,35.1
2019-02-28T07:37:32.294Z,36.1
2019-02-28T07:38:22.366Z,39.6
2019-02-28T07:39:12.165Z,46.9
2019-02-28T07:40:02.482Z,51.4
2019-02-28T07:40:52.526Z,51.4
2019-02-28T07:41:42.969Z,53.6
2019-02-28T07:42:39.614Z,54.4
2019-02-28T07:43:22.686Z,54.6
2019-02-28T07:44:12.760Z,54.4
2019-02-28T07:45:02.813Z,54.1
2019-02-28T07:45:53.753Z,53.6
2019-02-28T07:46:44.139Z,53.3
2019-02-28T07:47:32.983Z,52.9
2019-02-28T07:48:31.063Z,52.6
2019-02-28T07:49:12.550Z,52.3
2019-02-28T07:50:03.255Z,52.1
2019-02-28T07:50:53.235Z,51.8
2019-02-28T07:51:42.704Z,51.5
2019-02-28T07:52:35.153Z,51.1
2019-02-28T07:53:23.392Z,50.4
2019-02-28T07:54:17.617Z,51.6
2019-02-28T07:55:03.501Z,53.3
2019-02-28T07:55:53.555Z,53
2019-02-28T07:56:45.380Z,55.4
2019-02-28T07:57:33.659Z,56.5
2019-02-28T07:58:26.560Z,56.8
2019-02-28T07:59:13.502Z,56.6
2019-02-28T08:00:03.895Z,56.2
2019-02-28T08:00:55.129Z,55.8
2019-02-28T08:01:43.667Z,55.8
2019-02-28T08:02:40.774Z,55.9
2019-02-28T08:03:24.072Z,56.1
2019-02-28T08:04:20.136Z,56.4
2019-02-28T08:05:04.275Z,56.6
2019-02-28T08:05:54.225Z,56.8
2019-02-28T08:06:44.298Z,56.9
2019-02-28T08:07:34.359Z,56.9
2019-02-28T08:08:28.087Z,56.9
2019-02-28T08:09:14.169Z,57
2019-02-28T08:10:04.601Z,57.1
2019-02-28T08:10:54.572Z,57.2
2019-02-28T08:11:44.351Z,57.3
2019-02-28T08:12:34.692Z,57.4
2019-02-28T08:13:24.750Z,57.4
2019-02-28T08:14:14.857Z,57.5
2019-02-28T08:15:04.861Z,57.6
2019-02-28T08:16:44.688Z,57.8
2019-02-28T08:17:36.841Z,57.9
2019-02-28T08:18:25.077Z,58
2019-02-28T08:19:15.125Z,58.1
2019-02-28T08:20:05.182Z,58.2
2019-02-28T08:20:55.239Z,58.3
2019-02-28T08:21:51.536Z,58.3
2019-02-28T08:22:35.085Z,58.4
2019-02-28T08:23:25.423Z,58.5
2019-02-28T08:24:15.187Z,58.6
2019-02-28T08:25:09.284Z,58.7
2019-02-28T08:25:55.304Z,58.8
2019-02-28T08:26:45.370Z,58.8
2019-02-28T08:27:35.709Z,58.9
2019-02-28T08:28:25.746Z,58.9
2019-02-28T08:29:15.803Z,59.1
2019-02-28T08:30:05.894Z,59.1
2019-02-28T08:30:57.361Z,59.2
2019-02-28T08:31:45.705Z,59.3
2019-02-28T08:32:35.784Z,59.3
2019-02-28T08:33:26.106Z,59.4
2019-02-28T08:34:16.218Z,59.5
2019-02-28T08:35:06.204Z,59.6
2019-02-28T08:35:56.275Z,59.6
2019-02-28T08:36:48.948Z,59.8
2019-02-28T08:37:36.376Z,59.8
2019-02-28T08:38:26.435Z,59.8
2019-02-28T08:39:17.851Z,59.9
2019-02-28T08:40:06.563Z,60
2019-02-28T08:40:56.602Z,60.1
2019-02-28T08:41:46.675Z,60.1
2019-02-28T08:42:40.575Z,60.2
2019-02-28T08:43:28.910Z,60.3
2019-02-28T08:44:22.455Z,60.3
2019-02-28T08:45:06.935Z,60.3
2019-02-28T08:45:56.955Z,60.3
2019-02-28T08:46:48.683Z,60.4
2019-02-28T08:47:37.065Z,60.5
2019-02-28T08:48:35.475Z,60.6
2019-02-28T08:49:17.175Z,60.6
2019-02-28T08:50:07.232Z,60.7
2019-02-28T08:50:57.963Z,60.8
2019-02-28T08:51:47.352Z,60.8
2019-02-28T08:52:43.277Z,60.8
2019-02-28T08:53:27.467Z,60.9
2019-02-28T08:54:17.551Z,60.9
2019-02-28T08:55:10.313Z,61
2019-02-28T08:55:57.653Z,61.1
2019-02-28T08:56:51.644Z,61.1
2019-02-28T08:57:37.467Z,61.1
2019-02-28T08:58:27.242Z,61.3
2019-02-28T08:59:23.872Z,61.3
2019-02-28T09:00:07.639Z,61.3
2019-02-28T09:00:57.972Z,61.4
2019-02-28T09:01:48.026Z,61.5
2019-02-28T09:02:38.082Z,61.6
2019-02-28T09:03:28.899Z,61.6
2019-02-28T09:04:18.193Z,61.6
2019-02-28T09:05:08.270Z,61.6
2019-02-28T09:06:00.847Z,61.7
2019-02-28T09:06:48.365Z,61.8
2019-02-28T09:07:38.436Z,61.8
2019-02-28T09:08:28.488Z,61.9
2019-02-28T09:09:18.534Z,61.9
2019-02-28T09:10:13.749Z,61.9
2019-02-28T09:10:58.652Z,62.1
2019-02-28T09:11:48.708Z,62.1
2019-02-28T09:12:38.771Z,62.1
2019-02-28T09:13:28.823Z,62.1
2019-02-28T09:14:19.785Z,62.2
2019-02-28T09:15:08.934Z,62.3
2019-02-28T09:15:58.440Z,62.3
2019-02-28T09:16:49.051Z,62.4
2019-02-28T09:17:39.355Z,62.4
2019-02-28T09:18:29.171Z,62.4
2019-02-28T09:19:18.938Z,62.5
2019-02-28T09:20:12.225Z,62.5
2019-02-28T09:20:59.331Z,62.6
2019-02-28T09:21:54.783Z,62.6
2019-02-28T09:22:39.173Z,62.7
2019-02-28T09:23:29.236Z,62.7
2019-02-28T09:24:19.283Z,62.8
2019-02-28T09:25:09.618Z,62.8
2019-02-28T09:25:59.670Z,62.9
2019-02-28T09:26:49.747Z,62.9
2019-02-28T09:27:40.790Z,62.9
2019-02-28T09:28:29.853Z,63.1
2019-02-28T09:29:23.337Z,63.1
2019-02-28T09:30:09.955Z,63.1
2019-02-28T09:31:06.752Z,63.2
2019-02-28T09:31:50.082Z,63.3
2019-02-28T09:32:39.853Z,63.3
2019-02-28T09:33:30.190Z,63.4
2019-02-28T09:34:19.684Z,63.4
2019-02-28T09:35:15.897Z,63.5
2019-02-28T09:36:00.370Z,63.6
2019-02-28T09:36:57.375Z,63.6
2019-02-28T09:37:40.194Z,63.7
2019-02-28T09:38:30.519Z,63.7
2019-02-28T09:39:21.654Z,63.8
2019-02-28T09:40:10.647Z,63.8
2019-02-28T09:41:06.419Z,63.9
2019-02-28T09:41:50.750Z,63.9
2019-02-28T09:42:40.872Z,63.9
2019-02-28T09:43:30.869Z,64
2019-02-28T09:44:20.937Z,64.1
2019-02-28T09:45:10.997Z,64.1
2019-02-28T09:46:00.759Z,64.1
2019-02-28T09:46:52.906Z,64.2
2019-02-28T09:47:41.143Z,64.3
2019-02-28T09:48:38.265Z,64.3
2019-02-28T09:49:20.984Z,64.4
2019-02-28T09:50:11.308Z,64.4
2019-02-28T09:51:01.104Z,64.5
2019-02-28T09:51:51.439Z,64.6
2019-02-28T09:52:43.667Z,64.6
2019-02-28T09:53:31.289Z,64.6
2019-02-28T09:54:26.469Z,64.7
2019-02-28T09:55:11.691Z,64.8
2019-02-28T09:56:01.719Z,64.8
2019-02-28T09:56:51.813Z,64.9
2019-02-28T09:57:41.839Z,64.9
2019-02-28T09:58:31.633Z,64.9
2019-02-28T09:59:21.951Z,65
2019-02-28T10:00:14.135Z,65.1
2019-02-28T10:01:02.093Z,65.1
2019-02-28T10:02:05.012Z,65.2
2019-02-28T10:02:46.306Z,65.2
2019-02-28T10:03:32.009Z,65.3
2019-02-28T10:04:22.018Z,65.3
2019-02-28T10:06:53.285Z,65.4
2019-02-28T10:07:39.840Z,65.5
2019-02-28T10:08:29.848Z,65.6
2019-02-28T10:09:20.178Z,65.6
2019-02-28T10:10:10.238Z,65.7
2019-02-28T10:11:00.283Z,65.8
2019-02-28T10:11:49.800Z,65.8
2019-02-28T10:12:44.185Z,65.8
2019-02-28T10:13:32.313Z,65.9
2019-02-28T10:14:20.240Z,65.9
2019-02-28T10:15:10.653Z,66
2019-02-28T10:16:00.090Z,66.1
2019-02-28T10:16:54.395Z,66.1
2019-02-28T10:17:42.748Z,66.1
2019-02-28T10:18:30.798Z,66.2
2019-02-28T10:19:20.856Z,66.3
2019-02-28T10:20:10.650Z,66.3
2019-02-28T10:21:03.476Z,66.4
2019-02-28T10:21:53.740Z,66.4
2019-02-28T10:22:41.079Z,66.6
2019-02-28T10:23:30.848Z,66.6
2019-02-28T10:24:21.182Z,66.6
2019-02-28T10:25:11.242Z,66.7
2019-02-28T10:26:01.322Z,66.7
2019-02-28T10:26:53.572Z,66.8
2019-02-28T10:27:41.427Z,66.8
2019-02-28T10:28:31.485Z,66.9
2019-02-28T10:29:21.527Z,66.9
2019-02-28T10:30:17.312Z,67
2019-02-28T10:31:01.647Z,67.1
2019-02-28T10:31:51.706Z,67.1
2019-02-28T10:32:45.055Z,67.1
2019-02-28T10:33:31.824Z,67.2
2019-02-28T10:34:27.763Z,67.3
2019-02-28T10:35:11.654Z,67.4
2019-02-28T10:36:01.984Z,67.4
2019-02-28T10:36:52.056Z,67.4
2019-02-28T10:37:42.097Z,67.5
2019-02-28T10:38:35.161Z,67.5
2019-02-28T10:39:22.256Z,67.6
2019-02-28T10:40:18.974Z,67.6
2019-02-28T10:41:02.346Z,67.7
2019-02-28T10:41:52.394Z,67.8
2019-02-28T10:42:42.961Z,67.8
2019-02-28T10:43:32.496Z,67.8
2019-02-28T10:44:22.566Z,67.9
2019-02-28T10:45:12.609Z,67.9
2019-02-28T10:46:02.416Z,68
2019-02-28T10:46:55.968Z,68.1
2019-02-28T10:47:42.508Z,68.1
2019-02-28T10:48:39.297Z,68.1
2019-02-28T10:49:26.301Z,68.3
2019-02-28T10:50:12.950Z,68.3
2019-02-28T10:51:15.315Z,68.3
2019-02-28T10:51:52.790Z,68.4
2019-02-28T10:52:43.179Z,68.4
2019-02-28T10:53:33.188Z,68.5
2019-02-28T10:54:23.293Z,68.5
2019-02-28T10:55:13.296Z,68.6
2019-02-28T10:56:03.357Z,68.6
2019-02-28T10:56:53.413Z,68.6
2019-02-28T10:57:43.470Z,68.7
2019-02-28T10:58:33.248Z,68.7
2019-02-28T10:59:26.173Z,68.8
2019-02-28T11:00:13.630Z,68.8
2019-02-28T11:01:09.966Z,68.9
2019-02-28T11:01:53.765Z,68.9
2019-02-28T11:02:43.800Z,68.9
2019-02-28T11:03:34.750Z,68.9
2019-02-28T11:04:23.937Z,69
2019-02-28T11:05:20.220Z,69
2019-02-28T11:06:04.144Z,69.1
2019-02-28T11:06:54.088Z,69.1
2019-02-28T11:07:46.113Z,69.2
2019-02-28T11:08:34.212Z,69.2
2019-02-28T11:09:26.958Z,69.3
2019-02-28T11:10:14.336Z,69.3
2019-02-28T11:11:07.262Z,69.3
2019-02-28T11:11:54.440Z,69.4
2019-02-28T11:12:44.494Z,69.4
2019-02-28T11:13:34.552Z,69.4
2019-02-28T11:14:24.618Z,69.5
2019-02-28T11:15:16.167Z,69.5
2019-02-28T11:16:04.458Z,69.6
2019-02-28T11:17:01.362Z,69.6
2019-02-28T11:17:46.147Z,69.6
2019-02-28T11:18:36.989Z,69.6
2019-02-28T11:19:24.669Z,69.6
2019-02-28T11:20:27.637Z,69.6
2019-02-28T11:21:04.791Z,69.7
2019-02-28T11:21:55.117Z,69.7
2019-02-28T11:22:45.181Z,69.8
2019-02-28T11:23:34.954Z,69.8
2019-02-28T11:24:28.594Z,69.8
2019-02-28T11:25:15.355Z,69.8
2019-02-28T11:26:11.471Z,69.8
2019-02-28T11:26:57.061Z,69.8
2019-02-28T11:27:45.242Z,69.9
2019-02-28T11:28:35.571Z,69.9
2019-02-28T11:29:25.621Z,70
2019-02-28T11:30:15.421Z,70.1
2019-02-28T11:31:05.768Z,70.1
2019-02-28T11:31:56.579Z,70.1
2019-02-28T11:32:45.868Z,70.2
2019-02-28T11:33:41.193Z,70.2
2019-02-28T11:34:26.014Z,70.2
2019-02-28T11:35:16.041Z,70.2
2019-02-28T11:36:07.991Z,70.3
2019-02-28T11:36:56.153Z,70.3
2019-02-28T11:37:47.551Z,70.4
2019-02-28T11:38:36.260Z,70.4
2019-02-28T11:39:34.610Z,70.4
2019-02-28T11:40:16.373Z,70.4
2019-02-28T11:41:06.428Z,70.4
2019-02-28T11:41:56.488Z,70.4
2019-02-28T11:42:46.573Z,70.5
2019-02-28T11:43:39.728Z,70.5
2019-02-28T11:44:26.660Z,70.6
2019-02-28T11:45:26.004Z,70.6
2019-02-28T11:46:06.772Z,70.6
2019-02-28T11:46:56.293Z,70.7
2019-02-28T11:47:46.937Z,70.6
2019-02-28T11:48:36.957Z,70.7
2019-02-28T11:49:30.477Z,70.7
2019-02-28T11:50:17.062Z,70.8
2019-02-28T11:51:07.115Z,70.8
2019-02-28T11:51:57.175Z,70.8
2019-02-28T11:52:46.949Z,70.8
2019-02-28T11:53:41.582Z,70.8
2019-02-28T11:54:27.062Z,70.8
2019-02-28T11:55:22.070Z,70.9
2019-02-28T11:56:07.458Z,70.8
2019-02-28T11:57:02.461Z,70.8
2019-02-28T11:57:47.292Z,70.9
2019-02-28T11:58:37.636Z,70.9
2019-02-28T11:59:27.679Z,70.9
2019-02-28T12:00:17.737Z,70.9
2019-02-28T12:01:12.400Z,70.9
2019-02-28T12:01:57.852Z,71
2019-02-28T12:03:01.531Z,71
2019-02-28T12:03:38.137Z,71
2019-02-28T12:04:28.019Z,71
2019-02-28T12:06:51.826Z,71.1
2019-02-28T12:07:39.971Z,71.1
2019-02-28T12:08:30.027Z,71.1
2019-02-28T12:09:21.436Z,71.1
2019-02-28T12:10:10.139Z,71.1
2019-02-28T12:11:04.164Z,71.1
2019-02-28T12:11:50.251Z,71.2
2019-02-28T12:12:46.386Z,71.2
2019-02-28T12:13:30.374Z,71.2
2019-02-28T12:14:20.196Z,71.2
2019-02-28T12:15:10.476Z,71.2
2019-02-28T12:16:00.531Z,71.2
2019-02-28T12:16:54.494Z,71.3
2019-02-28T12:17:40.644Z,71.3
2019-02-28T12:18:30.764Z,71.3
2019-02-28T12:19:20.498Z,71.3
2019-02-28T12:20:10.839Z,71.3
2019-02-28T12:21:05.965Z,71.3
2019-02-28T12:21:50.941Z,71.3
2019-02-28T12:22:49.190Z,71.3
2019-02-28T12:23:30.517Z,71.3
2019-02-28T12:24:21.106Z,71.3
2019-02-28T12:25:11.173Z,71.4
2019-02-28T12:26:01.231Z,71.4
2019-02-28T12:26:55.030Z,71.4
2019-02-28T12:27:41.328Z,71.4
2019-02-28T12:28:31.402Z,71.3
2019-02-28T12:29:21.466Z,71.3
2019-02-28T12:30:10.938Z,71.3
2019-02-28T12:31:02.510Z,71.3
2019-02-28T12:31:51.342Z,71.3
2019-02-28T12:32:45.600Z,71.3
2019-02-28T12:33:31.187Z,71.3
2019-02-28T12:34:21.793Z,71.3
2019-02-28T12:35:11.585Z,71.3
2019-02-28T12:36:01.903Z,71.3
2019-02-28T12:36:51.972Z,71.3
2019-02-28T12:37:41.747Z,71.3
2019-02-28T12:38:32.098Z,71.3
2019-02-28T12:39:23.868Z,71.3
2019-02-28T12:40:12.658Z,71.3
2019-02-28T12:41:02.251Z,71.3
2019-02-28T12:41:52.302Z,71.3
2019-02-28T12:42:42.086Z,71.3
2019-02-28T12:43:32.472Z,71.3
2019-02-28T12:44:22.202Z,71.2
2019-02-28T12:45:12.602Z,71.2
2019-02-28T12:46:02.614Z,71.2
2019-02-28T12:46:52.381Z,71.3
2019-02-28T12:47:43.234Z,71.2
2019-02-28T12:48:32.504Z,71.2
2019-02-28T12:49:28.221Z,71.2
2019-02-28T12:50:12.898Z,71.1
2019-02-28T12:51:07.194Z,71.1
2019-02-28T12:51:52.984Z,71.1
2019-02-28T12:52:43.041Z,71.1
2019-02-28T12:53:34.089Z,71.1
2019-02-28T12:54:23.159Z,71.1
2019-02-28T12:55:13.221Z,71
2019-02-28T12:56:03.266Z,70.9
2019-02-28T12:56:53.328Z,70.9
2019-02-28T12:57:43.411Z,70.9
2019-02-28T12:58:42.644Z,70.9
2019-02-28T12:59:23.518Z,70.9
2019-02-28T13:00:13.566Z,70.8
2019-02-28T13:01:03.628Z,70.8
2019-02-28T13:01:53.397Z,70.8
2019-02-28T13:02:47.729Z,70.8
2019-02-28T13:03:33.818Z,70.8
2019-02-28T13:04:23.841Z,70.7
2019-02-28T13:05:17.221Z,70.6
2019-02-28T13:06:03.740Z,70.6
2019-02-28T13:07:00.525Z,70.6
2019-02-28T13:07:44.088Z,70.6
2019-02-28T13:08:33.885Z,70.5
2019-02-28T13:09:23.908Z,70.4
2019-02-28T13:10:14.267Z,70.4
2019-02-28T13:11:06.081Z,70.4
2019-02-28T13:11:54.363Z,70.4
2019-02-28T13:12:50.848Z,70.3
2019-02-28T13:13:34.523Z,70.3
2019-02-28T13:14:24.270Z,70.3
2019-02-28T13:15:15.104Z,70.2
2019-02-28T13:16:04.643Z,70.2
2019-02-28T13:16:59.277Z,70.1
2019-02-28T13:17:44.752Z,70.1
2019-02-28T13:18:34.845Z,70.1
2019-02-28T13:19:24.882Z,70
2019-02-28T13:20:14.965Z,70
2019-02-28T13:21:12.740Z,69.9
2019-02-28T13:21:55.055Z,69.8
2019-02-28T13:22:45.109Z,69.8
2019-02-28T13:23:35.575Z,69.7
2019-02-28T13:24:25.212Z,69.7
2019-02-28T13:25:15.277Z,69.6
2019-02-28T13:26:05.337Z,69.6
2019-02-28T13:26:55.429Z,69.6
2019-02-28T13:27:46.917Z,69.5
2019-02-28T13:28:35.555Z,69.4
2019-02-28T13:29:25.297Z,69.4
2019-02-28T13:30:15.709Z,69.3
2019-02-28T13:31:05.732Z,69.3
2019-02-28T13:32:03.152Z,69.2
2019-02-28T13:32:45.795Z,69.1
2019-02-28T13:33:35.869Z,69.1
2019-02-28T13:34:31.005Z,69
2019-02-28T13:35:15.746Z,69
2019-02-28T13:36:06.015Z,68.9
2019-02-28T13:37:04.059Z,68.9
2019-02-28T13:37:46.474Z,68.8
2019-02-28T13:38:35.944Z,68.8
2019-02-28T13:39:33.294Z,68.8
2019-02-28T13:40:16.325Z,68.7
2019-02-28T13:41:06.403Z,68.6
2019-02-28T13:42:04.582Z,68.5
2019-02-28T13:42:46.496Z,68.4
2019-02-28T13:43:36.577Z,68.4
2019-02-28T13:44:26.598Z,68.3
2019-02-28T13:45:24.959Z,68.3
2019-02-28T13:46:06.749Z,68.3
2019-02-28T13:46:56.788Z,68.2
2019-02-28T13:47:48.624Z,68.1
2019-02-28T13:48:36.885Z,68
2019-02-28T13:49:26.682Z,67.9
2019-02-28T13:50:26.765Z,67.9
2019-02-28T13:51:10.004Z,67.8
2019-02-28T13:51:57.156Z,67.7
2019-02-28T13:52:47.219Z,67.7
2019-02-28T13:53:36.951Z,67.5
2019-02-28T13:54:28.499Z,67.5
2019-02-28T13:55:21.159Z,67.4
2019-02-28T13:56:07.405Z,67.3
2019-02-28T13:56:57.498Z,67.3
2019-02-28T13:57:48.534Z,67.2
2019-02-28T13:58:37.371Z,67.1
2019-02-28T13:59:33.205Z,67
2019-02-28T14:00:17.764Z,66.9
2019-02-28T14:01:07.464Z,66.8
2019-02-28T14:01:57.834Z,66.8
2019-02-28T14:02:47.877Z,66.6
2019-02-28T14:03:37.665Z,66.6
2019-02-28T14:04:28.697Z,66.4
2019-02-28T14:05:18.052Z,66.4
2019-02-28T14:07:49.536Z,66.1
2019-02-28T14:08:45.887Z,66
2019-02-28T14:09:29.914Z,65.9
2019-02-28T14:10:20.002Z,65.8
2019-02-28T14:11:12.364Z,65.7
2019-02-28T14:12:00.112Z,65.6
2019-02-28T14:12:56.898Z,65.5
2019-02-28T14:13:39.934Z,65.4
2019-02-28T14:14:30.300Z,65.3
2019-02-28T14:15:20.353Z,65.2
2019-02-28T14:16:10.399Z,65.1
2019-02-28T14:17:03.049Z,65
2019-02-28T14:17:50.504Z,64.9
2019-02-28T14:18:46.686Z,64.8
2019-02-28T14:19:30.614Z,64.6
2019-02-28T14:20:20.667Z,64.6
2019-02-28T14:21:10.726Z,64.3
2019-02-28T14:22:00.784Z,63.9
2019-02-28T14:22:50.564Z,63.5
2019-02-28T14:23:40.894Z,63.1
2019-02-28T14:24:33.038Z,62.6
2019-02-28T14:25:21.018Z,62
2019-02-28T14:26:15.531Z,61.4
2019-02-28T14:27:01.129Z,60.8
2019-02-28T14:27:50.911Z,60.3
2019-02-28T14:28:41.256Z,59.8